Time;durP1;ratioP1;P1;durP2;ratioP2;P2;SDS_P1;SDS_P2;PMS_P1;PMS_P2;Temp;Humidity;BMP_temperature;BMP_pressure;BME280_temperature;BME280_humidity;BME280_pressure;Samples;Min_cycle;Max_cycle;Signal;HPM_P1;HPM_P2
2021/12/04 05:01:55;;;;;;;;;0.00;0.00;;;;;12.97;75.60;99374.59;5800377;22;45996;-86
2021/12/04 05:14:32;;;;;;;;;0.00;0.00;;;;;13.58;75.86;99462.75;4977010;28;45582;-85
2021/12/04 05:17:03;;;;;;;;;1.00;0.00;;;;;12.87;75.49;99352.19;4977226;28;45458;-86
2021/12/04 05:19:38;;;;;;;;;0.00;0.00;;;;;13.03;75.38;99375.94;4976866;28;45523;-85
2021/12/04 05:22:05;;;;;;;;;0.00;0.00;;;;;13.16;75.53;99392.78;4976537;28;45604;-86
2021/12/04 05:24:31;;;;;;;;;0.00;0.00;;;;;13.23;75.46;99407.38;4976702;28;45576;-85
2021/12/04 05:26:56;;;;;;;;;0.00;0.00;;;;;13.38;75.16;99433.97;4976514;28;45649;-85
2021/12/04 05:29:24;;;;;;;;;0.00;0.00;;;;;13.55;74.83;99462.97;4991854;28;46222;-85
2021/12/04 05:31:49;;;;;;;;;0.00;0.00;;;;;13.10;74.81;99390.56;4996284;28;45463;-86
2021/12/04 05:34:15;;;;;;;;;0.00;0.00;;;;;13.49;74.84;99450.06;4995940;28;45405;-86
2021/12/04 05:36:41;;;;;;;;;1.00;1.00;;;;;13.11;74.98;99384.25;4996880;28;45333;-86
2021/12/04 05:39:06;;;;;;;;;0.00;0.00;;;;;13.65;74.86;99458.63;4995789;28;46136;-85
2021/12/04 05:41:32;;;;;;;;;0.00;0.00;;;;;13.08;74.59;99371.09;4995949;28;45732;-86
2021/12/04 05:44:03;;;;;;;;;0.00;0.00;;;;;13.34;74.26;99409.25;5006452;28;45456;-86
2021/12/04 05:46:34;;;;;;;;;0.00;0.00;;;;;13.57;74.69;99452.16;5010268;28;45333;-86
2021/12/04 05:49:08;;;;;;;;;0.00;0.00;;;;;13.49;74.59;99440.22;5017049;28;47273;-86
2021/12/04 05:52:04;;;;;;;;;1.00;0.00;;;;;13.35;74.26;99418.16;5016877;28;45484;-85
2021/12/04 05:56:58;;;;;;;;;0.00;0.00;;;;;13.65;74.11;99473.81;5015241;28;45395;-86
2021/12/04 05:59:23;;;;;;;;;0.00;0.00;;;;;13.68;74.12;99478.97;5016325;28;46354;-86
2021/12/04 06:01:49;;;;;;;;;0.00;0.00;;;;;13.26;73.89;99404.47;5017766;28;45289;-86
2021/12/04 06:04:15;;;;;;;;;0.00;0.00;;;;;13.50;73.97;99443.75;5016958;28;45437;-87
2021/12/04 06:06:40;;;;;;;;;0.00;0.00;;;;;13.60;73.97;99467.97;5018591;28;45398;-87
2021/12/04 06:09:05;;;;;;;;;0.00;0.00;;;;;13.66;74.35;99478.22;5016356;28;47500;-87
2021/12/04 06:11:32;;;;;;;;;0.00;0.00;;;;;13.54;73.55;99453.25;5015936;28;45470;-87
2021/12/04 06:13:57;;;;;;;;;0.00;0.00;;;;;13.37;73.61;99416.19;5014387;28;45309;-87
2021/12/04 06:16:23;;;;;;;;;0.00;0.00;;;;;13.61;73.69;99457.16;5016609;28;45690;-87
2021/12/04 06:18:52;;;;;;;;;0.00;0.00;;;;;13.70;73.74;99458.28;5010837;28;45954;-87
2021/12/04 06:24:04;;;;;;;;;0.00;0.00;;;;;13.41;72.97;99402.47;5000782;28;45425;-85
2021/12/04 06:26:30;;;;;;;;;0.00;0.00;;;;;13.23;73.21;99366.41;5017345;28;45356;-85
2021/12/04 06:28:56;;;;;;;;;0.00;0.00;;;;;13.49;73.19;99413.44;5012200;28;45388;-85
2021/12/04 06:31:21;;;;;;;;;0.00;0.00;;;;;13.63;72.40;99439.16;5016846;28;45384;-85
2021/12/04 06:33:47;;;;;;;;;0.00;0.00;;;;;13.69;72.98;99430.63;5008972;28;45280;-86
2021/12/04 06:36:12;;;;;;;;;0.00;0.00;;;;;13.49;72.77;99397.38;5018027;28;45267;-86
2021/12/04 06:38:37;;;;;;;;;0.00;0.00;;;;;13.56;72.45;99407.63;5005088;28;45619;-86
2021/12/04 06:41:04;;;;;;;;;0.00;0.00;;;;;13.34;72.91;99360.25;5011853;28;45458;-86
2021/12/04 06:43:30;;;;;;;;;0.00;0.00;;;;;13.62;72.67;99407.97;5016749;28;45422;-84
2021/12/04 06:46:00;;;;;;;;;0.00;0.00;;;;;13.51;72.56;99390.09;5003230;28;45456;-85
2021/12/04 06:48:44;;;;;;;;;1.00;0.00;;;;;13.83;72.37;99434.91;5006633;28;46508;-85
2021/12/04 06:56:03;;;;;;;;;1.00;0.00;;;;;13.82;72.10;99427.84;5016997;28;45285;-85
2021/12/04 06:58:29;;;;;;;;;0.00;0.00;;;;;13.77;72.27;99413.13;5013520;28;46465;-85
2021/12/04 07:00:56;;;;;;;;;0.00;0.00;;;;;13.47;72.20;99358.34;5010437;28;45397;-85
2021/12/04 07:03:21;;;;;;;;;0.00;0.00;;;;;13.89;72.85;99423.72;5010750;28;45687;-84
2021/12/04 07:05:47;;;;;;;;;0.00;0.00;;;;;13.72;72.72;99395.59;5008379;28;45509;-85
2021/12/04 07:08:14;;;;;;;;;0.00;0.00;;;;;13.91;72.78;99431.66;5017937;28;46423;-85
2021/12/04 07:10:40;;;;;;;;;1.00;0.00;;;;;13.96;72.88;99439.31;5015900;28;45568;-85
2021/12/04 07:13:06;;;;;;;;;0.67;0.67;;;;;13.97;73.08;99439.19;5017772;28;45368;-86
2021/12/04 07:15:32;;;;;;;;;1.00;0.00;;;;;13.55;72.77;99357.72;4999140;28;45496;-89
2021/12/04 07:17:59;;;;;;;;;2.33;0.00;;;;;13.62;73.12;99386.56;5014197;28;46020;-86
2021/12/04 07:20:27;;;;;;;;;0.00;0.00;;;;;13.76;72.92;99388.16;5004157;28;45570;-87
2021/12/04 07:22:52;;;;;;;;;1.00;1.00;;;;;13.30;73.04;99309.66;4997936;28;45549;-90
2021/12/04 07:25:19;;;;;;;;;0.00;0.00;;;;;14.02;72.72;99423.59;5005100;28;45627;-92
2021/12/04 07:27:45;;;;;;;;;0.67;0.67;;;;;14.03;72.79;99411.91;5009060;28;47400;-87
2021/12/04 07:30:11;;;;;;;;;0.00;0.00;;;;;13.62;72.85;99350.91;5003793;28;45569;-85
2021/12/04 07:32:37;;;;;;;;;0.00;0.00;;;;;14.01;73.21;99411.19;5002495;28;45474;-83
2021/12/04 07:35:04;;;;;;;;;0.00;0.00;;;;;13.96;73.17;99412.53;5000763;28;45471;-82
2021/12/04 07:37:29;;;;;;;;;0.33;0.33;;;;;13.97;73.83;99404.34;5002419;28;45406;-82
2021/12/04 07:39:55;;;;;;;;;0.67;0.67;;;;;13.91;74.22;99384.28;5004501;28;45626;-87
2021/12/04 07:42:20;;;;;;;;;0.00;0.00;;;;;13.57;74.43;99348.59;4999991;28;45713;-89
2021/12/04 07:44:46;;;;;;;;;0.00;0.00;;;;;13.67;74.97;99368.34;5006506;28;45521;-89
2021/12/04 07:47:11;;;;;;;;;0.00;0.00;;;;;13.54;75.26;99351.53;4992435;28;46655;-89
2021/12/04 07:49:38;;;;;;;;;0.00;0.00;;;;;13.64;75.00;99378.41;5006385;28;45519;-90
2021/12/04 07:52:08;;;;;;;;;0.00;0.00;;;;;13.48;74.74;99335.94;5005223;28;45512;-87
2021/12/04 07:54:34;;;;;;;;;0.00;0.00;;;;;13.85;74.68;99413.38;5001683;28;45437;-90
2021/12/04 07:57:00;;;;;;;;;0.00;0.00;;;;;13.81;74.48;99403.88;5007171;28;45529;-87
2021/12/04 07:59:26;;;;;;;;;0.00;0.00;;;;;13.83;74.47;99402.78;5007198;28;45541;-89
2021/12/04 08:01:52;;;;;;;;;0.00;0.00;;;;;13.85;74.73;99411.53;5001729;28;45457;-88
2021/12/04 08:04:18;;;;;;;;;0.00;0.00;;;;;13.87;74.86;99432.84;5002741;28;45391;-87
2021/12/04 08:06:44;;;;;;;;;0.00;0.00;;;;;13.86;75.00;99428.44;4998756;28;47215;-86
2021/12/04 08:09:09;;;;;;;;;0.00;0.00;;;;;13.71;75.13;99406.41;5003398;28;45353;-89
2021/12/04 08:11:34;;;;;;;;;0.00;0.00;;;;;13.85;75.35;99435.63;5005383;28;45424;-86
2021/12/04 08:14:00;;;;;;;;;2.00;0.00;;;;;13.86;75.55;99445.41;5003780;28;45702;-83
2021/12/04 08:16:26;;;;;;;;;0.00;0.00;;;;;13.76;75.20;99428.31;5004689;28;45711;-84
2021/12/04 08:18:53;;;;;;;;;0.00;0.00;;;;;13.79;74.71;99435.25;5003220;28;46839;-87
2021/12/04 08:21:19;;;;;;;;;0.00;0.00;;;;;13.15;74.09;99340.22;5000486;28;45452;-84
2021/12/04 08:23:45;;;;;;;;;1.00;0.00;;;;;13.51;74.36;99424.91;5000992;28;45643;-85
2021/12/04 08:26:10;;;;;;;;;0.00;0.00;;;;;13.73;74.58;99442.81;5004695;28;46838;-86
2021/12/04 08:28:36;;;;;;;;;0.00;0.00;;;;;13.08;73.79;99347.88;5003295;28;45588;-91
2021/12/04 08:31:01;;;;;;;;;0.00;0.00;;;;;12.88;74.43;99306.63;4995923;28;45537;-87
2021/12/04 08:33:27;;;;;;;;;0.00;0.00;;;;;13.75;73.40;99453.41;5008447;28;45643;-86
2021/12/04 08:35:52;;;;;;;;;0.00;0.00;;;;;13.49;73.73;99418.81;5000974;28;46188;-89
2021/12/04 08:38:18;;;;;;;;;0.00;0.00;;;;;13.58;73.39;99430.63;5003363;28;46135;-93
2021/12/04 08:40:44;;;;;;;;;0.00;0.00;;;;;13.69;72.75;99453.88;5014090;28;45650;-87
2021/12/04 08:43:10;;;;;;;;;1.00;0.00;;;;;13.17;72.18;99370.38;5004463;28;45567;-90
2021/12/04 08:45:36;;;;;;;;;0.00;0.00;;;;;13.40;71.96;99411.47;5006284;28;47205;-86
2021/12/04 08:48:02;;;;;;;;;0.00;0.00;;;;;13.48;71.89;99433.13;5000512;28;45836;-93
2021/12/04 08:50:30;;;;;;;;;0.00;0.00;;;;;13.73;71.81;99476.78;5004689;28;45385;-89
2021/12/04 08:52:58;;;;;;;;;0.00;0.00;;;;;13.72;71.81;99483.97;5006547;28;45461;-83
2021/12/04 08:55:27;;;;;;;;;0.00;0.00;;;;;13.72;70.79;99491.16;5006520;28;46593;-94
2021/12/04 08:57:53;;;;;;;;;0.00;0.00;;;;;13.73;70.78;99492.84;5005576;28;45689;-84
2021/12/04 09:00:26;;;;;;;;;0.00;0.00;;;;;13.04;70.13;99386.53;5002359;28;46585;-88
2021/12/04 09:02:53;;;;;;;;;0.00;0.00;;;;;13.60;69.94;99490.28;5003596;28;45290;-82
2021/12/04 09:05:20;;;;;;;;;0.00;0.00;;;;;13.70;70.71;99506.47;5004707;28;45424;-88
2021/12/04 09:07:45;;;;;;;;;1.00;0.00;;;;;13.75;70.76;99517.69;5010153;28;45401;-85
2021/12/04 09:10:12;;;;;;;;;0.00;0.00;;;;;13.34;69.83;99444.06;5007600;28;45509;-89
2021/12/04 09:12:39;;;;;;;;;0.00;0.00;;;;;13.76;69.41;99519.38;5007428;28;45386;-83
2021/12/04 09:15:07;;;;;;;;;0.00;0.00;;;;;13.78;68.49;99519.28;5001480;28;45359;-85
2021/12/04 09:17:33;;;;;;;;;0.00;0.00;;;;;13.27;68.38;99443.69;5004134;28;45484;-88
2021/12/04 09:19:59;;;;;;;;;1.00;1.00;;;;;13.81;69.75;99533.25;5004881;28;45542;-90
2021/12/04 09:22:27;;;;;;;;;3.00;0.00;;;;;13.87;68.26;99540.00;5003861;28;45532;-90
2021/12/04 09:24:56;;;;;;;;;0.00;0.00;;;;;13.51;68.57;99475.75;5021136;28;47620;-90
2021/12/04 09:59:12;;;;;;;;;0.00;0.00;;;;;13.84;65.76;99556.31;5011572;28;45251;-91
2021/12/04 10:02:41;;;;;;;;;2.00;2.00;;;;;13.40;64.23;99563.19;4999061;28;45267;-90
2021/12/04 10:14:21;;;;;;;;;2.00;0.00;;;;;12.90;63.97;99507.06;5002200;28;45736;-86
2021/12/04 10:32:36;;;;;;;;;0.00;0.00;;;;;13.18;63.10;99583.47;5023138;28;45444;-94
2021/12/04 10:35:07;;;;;;;;;0.00;0.00;;;;;13.31;62.95;99618.22;4937536;28;45481;-92
2021/12/04 10:37:34;;;;;;;;;0.00;0.00;;;;;12.63;63.72;99505.41;4976036;28;45781;-93
2021/12/04 10:40:22;;;;;;;;;0.00;0.00;;;;;13.27;63.16;99611.34;4951396;28;47210;-90
2021/12/04 10:43:00;;;;;;;;;0.00;0.00;;;;;12.38;63.64;99460.88;4952142;28;45458;-93
2021/12/04 10:45:36;;;;;;;;;0.00;0.00;;;;;13.56;63.01;99640.53;4946348;28;45455;-94
2021/12/04 10:48:10;;;;;;;;;2.00;0.00;;;;;13.32;62.89;99625.28;4942860;28;45292;-90
2021/12/04 10:53:12;;;;;;;;;0.33;0.33;;;;;12.52;61.64;99489.28;4963123;28;45421;-92
2021/12/04 11:01:11;;;;;;;;;1.00;1.00;;;;;12.74;62.92;99519.84;4966024;28;45542;-91
2021/12/04 11:41:56;;;;;;;;;0.67;0.67;;;;;12.27;64.99;99614.91;5001241;28;45539;-88
2021/12/04 11:44:44;;;;;;;;;0.67;0.67;;;;;12.45;64.52;99651.94;5010436;28;45427;-89
2021/12/04 11:47:10;;;;;;;;;2.67;0.67;;;;;12.88;64.42;99721.13;5007643;28;45418;-91
2021/12/04 11:49:36;;;;;;;;;1.67;1.67;;;;;12.40;64.05;99656.72;5014138;28;45420;-90
2021/12/04 11:52:11;;;;;;;;;4.00;2.00;;;;;12.52;64.50;99681.72;5009145;28;45484;-93
2021/12/04 11:54:49;;;;;;;;;1.67;1.67;;;;;12.37;65.21;99659.59;4997471;28;48136;-91
2021/12/04 11:57:19;;;;;;;;;1.67;1.67;;;;;12.83;64.69;99739.31;5015154;28;45373;-94
2021/12/04 11:59:46;;;;;;;;;3.00;2.00;;;;;12.94;64.87;99753.75;5007656;28;45397;-92
2021/12/04 12:02:24;;;;;;;;;4.33;3.00;;;;;12.39;64.91;99649.66;5004499;28;45262;-92
2021/12/04 12:04:55;;;;;;;;;1.33;1.00;;;;;11.89;63.80;99571.16;4990352;28;46192;-92
2021/12/04 12:07:27;;;;;;;;;4.67;2.67;;;;;12.86;64.54;99749.78;5008873;28;45195;-89
2021/12/04 12:10:05;;;;;;;;;1.67;1.67;;;;;12.53;63.53;99669.25;5002613;28;45464;-90
2021/12/04 12:12:36;;;;;;;;;1.67;1.00;;;;;13.04;63.05;99758.34;5004369;28;45616;-90
2021/12/04 12:15:16;;;;;;;;;5.33;1.67;;;;;13.09;63.32;99768.72;5015628;28;47875;-83
2021/12/04 12:17:43;;;;;;;;;4.00;3.00;;;;;12.57;61.81;99674.28;5014312;28;46048;-92
2021/12/04 12:20:16;;;;;;;;;3.33;2.67;;;;;12.65;61.62;99709.34;5018785;28;45382;-88
2021/12/04 12:36:03;;;;;;;;;3.67;1.00;;;;;12.94;60.29;99804.56;4998017;28;45502;-86
2021/12/04 12:38:42;;;;;;;;;5.00;3.00;;;;;12.23;60.51;99692.59;4999653;28;45425;-86
2021/12/04 12:41:20;;;;;;;;;6.33;4.67;;;;;12.03;60.49;99677.03;5004141;28;45467;-89
2021/12/04 12:44:04;;;;;;;;;4.67;3.67;;;;;12.97;59.85;99831.09;5005594;28;45377;-83
2021/12/04 12:46:42;;;;;;;;;2.33;2.33;;;;;12.98;60.03;99844.38;5001997;28;45922;-89
2021/12/04 12:49:42;;;;;;;;;3.00;3.00;;;;;12.95;59.75;99841.06;5006912;28;45505;-90
2021/12/04 12:52:13;;;;;;;;;5.00;4.00;;;;;12.93;59.36;99851.00;4958744;28;45609;-89
2021/12/04 12:54:41;;;;;;;;;6.33;3.33;;;;;12.91;60.53;99842.22;4962753;28;45626;-88
2021/12/04 12:57:10;;;;;;;;;4.00;4.00;;;;;12.87;60.18;99838.88;4971221;28;46220;-89
2021/12/04 13:11:35;;;;;;;;;6.00;2.67;;;;;11.96;58.85;99713.13;4955505;28;45444;-92
2021/12/04 13:11:44;;;;;;;;;3.00;3.00;;;;;12.53;58.80;99851.00;4975031;28;45329;-92
2021/12/04 13:14:29;;;;;;;;;4.00;4.00;;;;;12.60;58.64;99863.00;4972459;28;45439;-89
2021/12/04 13:17:07;;;;;;;;;6.33;4.33;;;;;12.40;59.23;99849.13;4966118;28;45430;-83
2021/12/04 13:19:36;;;;;;;;;4.67;4.67;;;;;12.58;59.52;99868.44;4956362;28;47990;-89
2021/12/04 13:22:05;;;;;;;;;2.67;2.67;;;;;12.56;59.44;99873.03;4976047;28;45274;-85
2021/12/04 13:24:39;;;;;;;;;10.67;6.33;;;;;11.94;59.01;99764.00;4972471;28;45439;-91
2021/12/04 13:29:57;;;;;;;;;4.33;2.67;;;;;12.53;58.83;99873.22;5014599;28;46031;-85
2021/12/04 13:32:32;;;;;;;;;5.67;5.67;;;;;12.14;57.81;99805.41;5007727;28;45736;-84
2021/12/04 13:35:09;;;;;;;;;6.33;4.00;;;;;12.03;57.56;99786.53;5004067;28;45373;-86
2021/12/04 13:37:35;;;;;;;;;2.67;2.67;;;;;12.24;56.80;99824.34;5009684;28;45512;-91
2021/12/04 13:40:05;;;;;;;;;2.67;2.67;;;;;12.61;56.47;99881.59;5008370;28;46498;-82
2021/12/04 13:42:35;;;;;;;;;7.67;4.33;;;;;11.88;55.37;99758.19;5006324;28;45559;-89
2021/12/04 13:45:18;;;;;;;;;3.67;3.33;;;;;11.10;55.74;99631.50;4999844;28;45669;-88
2021/12/04 13:47:54;;;;;;;;;2.67;2.00;;;;;12.63;55.78;99871.66;4997985;28;45445;-87
2021/12/04 13:53:14;;;;;;;;;3.00;3.00;;;;;12.15;54.73;99803.59;5004100;28;45480;-88
2021/12/04 13:55:43;;;;;;;;;7.33;4.33;;;;;12.13;54.81;99793.03;5009677;28;45512;-87
2021/12/04 13:58:09;;;;;;;;;4.00;2.67;;;;;11.84;54.99;99738.78;5001935;28;45509;-84
2021/12/04 14:00:35;;;;;;;;;2.00;2.00;;;;;12.01;54.25;99756.41;4997504;28;47367;-85
2021/12/04 14:03:01;;;;;;;;;3.67;2.67;;;;;12.70;53.99;99871.25;5004802;28;45797;-81
2021/12/04 14:05:28;;;;;;;;;1.67;1.67;;;;;12.73;54.28;99857.69;5007753;28;45729;-80
2021/12/04 14:08:05;;;;;;;;;11.33;11.33;;;;;12.54;54.46;99817.94;5007922;28;45503;-80
2021/12/04 14:10:34;;;;;;;;;7.67;5.33;;;;;12.81;53.66;99864.22;5008739;28;45510;-79
2021/12/04 14:13:02;;;;;;;;;4.33;4.33;;;;;12.52;54.63;99814.53;5006547;28;45606;-83
2021/12/04 14:15:28;;;;;;;;;4.00;2.33;;;;;12.39;53.38;99793.13;5002954;28;45536;-83
2021/12/04 14:18:08;;;;;;;;;4.00;4.00;;;;;12.25;54.12;99783.34;5000874;28;45577;-84
2021/12/04 14:20:39;;;;;;;;;5.33;2.00;;;;;12.61;53.18;99840.63;5008454;28;46436;-85
2021/12/04 14:23:07;;;;;;;;;5.00;3.67;;;;;12.78;54.31;99875.16;4993616;28;45568;-85
2021/12/04 14:25:42;;;;;;;;;6.00;5.67;;;;;12.22;54.70;99795.09;5001089;28;45516;-85
2021/12/04 14:28:09;;;;;;;;;6.33;5.67;;;;;12.31;53.82;99816.81;5011079;28;45579;-89
2021/12/04 14:30:47;;;;;;;;;4.67;3.33;;;;;12.06;53.08;99794.38;5005927;28;46442;-91
2021/12/04 14:33:19;;;;;;;;;3.67;2.33;;;;;11.94;52.24;99796.03;4988708;28;45577;-85
2021/12/04 14:35:47;;;;;;;;;5.33;5.33;;;;;12.54;52.69;99895.47;5011342;28;45618;-85
2021/12/04 14:38:16;;;;;;;;;6.67;4.00;;;;;12.16;52.63;99842.72;5005476;28;45760;-84
2021/12/04 14:40:57;;;;;;;;;2.67;2.33;;;;;12.48;51.46;99906.53;5015821;28;45638;-84
2021/12/04 14:43:26;;;;;;;;;2.00;1.00;;;;;12.40;50.77;99915.91;5002225;28;45326;-83
2021/12/04 14:45:56;;;;;;;;;2.33;2.33;;;;;12.38;51.44;99923.19;4996707;28;45393;-84
2021/12/04 14:48:30;;;;;;;;;1.67;1.67;;;;;11.98;52.44;99869.63;4997752;28;45577;-84
2021/12/04 14:51:05;;;;;;;;;2.33;2.33;;;;;11.78;52.47;99841.50;4997772;28;45606;-83
2021/12/04 14:53:33;;;;;;;;;3.33;3.33;;;;;12.07;51.17;99892.22;5000525;28;45413;-84
2021/12/04 14:56:03;;;;;;;;;7.00;2.67;;;;;12.34;51.30;99945.72;5007453;28;45525;-83
2021/12/04 14:58:28;;;;;;;;;5.67;3.67;;;;;12.25;51.68;99949.00;5013148;28;45516;-84
2021/12/04 15:00:59;;;;;;;;;5.00;5.00;;;;;12.01;51.75;99911.31;5011346;28;46453;-84
2021/12/04 15:03:57;;;;;;;;;2.67;2.67;;;;;12.28;52.65;99963.97;5009306;28;45744;-84
2021/12/04 15:06:24;;;;;;;;;2.67;2.67;;;;;12.25;51.86;99968.53;4982474;28;46002;-83
2021/12/04 15:09:09;;;;;;;;;11.00;4.00;;;;;12.21;52.24;99974.16;4998597;28;45657;-87
2021/12/04 15:11:36;;;;;;;;;3.67;3.00;;;;;12.17;51.67;99978.84;4998509;28;47469;-87
2021/12/04 15:14:19;;;;;;;;;2.00;2.00;;;;;11.95;51.90;99949.94;5001011;28;45521;-82
2021/12/04 15:16:50;;;;;;;;;5.00;2.00;;;;;11.69;51.77;99926.66;5009658;28;45619;-84
2021/12/04 15:19:19;;;;;;;;;2.33;2.33;;;;;11.54;51.61;99915.97;5000298;28;45528;-89
2021/12/04 15:21:51;;;;;;;;;3.00;2.00;;;;;11.97;51.71;100000.59;5010050;28;45493;-81
2021/12/04 15:24:33;;;;;;;;;6.00;2.67;;;;;11.73;52.41;99974.44;5013962;28;45452;-81
2021/12/04 15:27:04;;;;;;;;;2.00;2.00;;;;;11.44;51.72;99954.81;5010117;28;45400;-82
2021/12/04 15:29:31;;;;;;;;;5.00;1.00;;;;;11.59;52.61;99998.44;4998192;28;45337;-80
2021/12/04 15:32:00;;;;;;;;;0.67;0.67;;;;;11.56;52.77;100022.59;4999550;28;48518;-81
2021/12/04 15:34:32;;;;;;;;;2.00;1.00;;;;;11.11;53.85;99974.53;5003361;28;45588;-86
2021/12/04 15:37:02;;;;;;;;;2.00;1.00;;;;;11.45;54.15;100036.59;5015265;28;45775;-82
2021/12/04 15:39:34;;;;;;;;;2.00;2.00;;;;;11.41;53.15;100035.06;5016841;28;45509;-82
2021/12/04 15:44:59;;;;;;;;;2.33;1.00;;;;;11.02;53.29;99967.06;5013828;28;45485;-82
2021/12/04 15:47:48;;;;;;;;;3.00;1.00;;;;;11.29;53.29;100023.28;5018935;28;45513;-83
2021/12/04 15:53:13;;;;;;;;;2.33;0.67;;;;;10.34;53.99;99877.66;5018417;28;45724;-82
2021/12/04 15:55:41;;;;;;;;;3.33;1.00;;;;;11.06;53.75;100029.94;5019342;28;45658;-82
2021/12/04 15:58:10;;;;;;;;;3.00;2.00;;;;;11.02;53.62;100032.88;5018809;28;45485;-82
2021/12/04 16:00:43;;;;;;;;;1.33;1.33;;;;;10.80;53.74;99996.78;5019419;28;45432;-82
2021/12/04 16:03:12;;;;;;;;;1.33;1.33;;;;;10.96;53.15;100034.09;5016960;28;46472;-82
2021/12/04 16:05:42;;;;;;;;;3.33;3.33;;;;;10.06;53.21;99894.28;5018733;28;45480;-82
2021/12/04 16:08:22;;;;;;;;;9.00;7.33;;;;;10.55;53.90;99978.63;4996704;28;45370;-82
2021/12/04 16:10:49;;;;;;;;;2.00;2.00;;;;;10.95;52.57;100054.56;5019392;28;45724;-82
2021/12/04 16:13:23;;;;;;;;;1.67;1.00;;;;;10.87;52.86;100059.47;5018023;28;46008;-83
2021/12/04 16:15:49;;;;;;;;;1.00;1.00;;;;;10.85;52.59;100063.16;5018424;28;45365;-82
2021/12/04 16:18:16;;;;;;;;;5.00;3.00;;;;;10.49;53.33;100009.16;5018275;28;45385;-83
2021/12/04 16:20:42;;;;;;;;;8.67;8.67;;;;;10.71;53.25;100053.28;5017361;28;45652;-82
2021/12/04 16:23:07;;;;;;;;;9.67;4.33;;;;;10.55;53.17;100031.94;5017690;28;47211;-82
2021/12/04 16:25:36;;;;;;;;;4.67;4.33;;;;;10.76;53.88;100077.84;5018128;28;45383;-82
2021/12/04 16:33:26;;;;;;;;;4.00;3.00;;;;;10.00;53.64;99995.81;5018274;28;45365;-82
2021/12/04 16:36:03;;;;;;;;;3.00;3.00;;;;;10.54;54.21;100094.16;5010247;28;45377;-82
2021/12/04 16:38:32;;;;;;;;;2.00;2.00;;;;;10.54;53.73;100119.00;5017210;28;45330;-82
2021/12/04 16:41:01;;;;;;;;;1.00;1.00;;;;;10.41;53.98;100103.75;5018707;28;45468;-81
2021/12/04 16:43:37;;;;;;;;;0.00;0.00;;;;;9.97;54.13;100043.88;5017823;28;45407;-82
2021/12/04 16:46:08;;;;;;;;;1.00;1.00;;;;;9.95;55.16;100067.09;5015126;28;45428;-82
2021/12/04 16:48:38;;;;;;;;;3.00;1.00;;;;;10.26;56.09;100142.69;5018118;28;45583;-82
2021/12/04 16:56:35;;;;;;;;;1.67;1.00;;;;;10.04;58.81;100137.59;5016948;28;45338;-83
2021/12/04 16:59:06;;;;;;;;;0.33;0.00;;;;;10.03;58.30;100135.88;5018541;28;45470;-85
2021/12/04 17:01:35;;;;;;;;;0.00;0.00;;;;;9.42;58.09;100036.09;5017547;28;45435;-83
2021/12/04 17:04:00;;;;;;;;;0.33;0.00;;;;;9.37;58.62;100041.63;5018038;28;45509;-84
2021/12/04 17:06:26;;;;;;;;;1.33;1.00;;;;;9.42;58.60;100047.56;5015772;28;47057;-84
2021/12/04 17:08:51;;;;;;;;;1.00;1.00;;;;;9.42;58.36;100033.44;5016953;28;45411;-83
2021/12/04 17:11:17;;;;;;;;;2.00;1.00;;;;;9.55;58.77;100055.78;5018463;28;45408;-83
2021/12/04 17:13:43;;;;;;;;;1.00;1.00;;;;;9.42;58.44;100026.31;5017580;28;46406;-83
2021/12/04 17:16:08;;;;;;;;;2.00;1.00;;;;;9.51;58.83;100067.53;5017193;28;45369;-84
2021/12/04 17:18:39;;;;;;;;;2.00;2.00;;;;;9.89;58.14;100134.78;5017676;28;45441;-83
2021/12/04 17:21:05;;;;;;;;;1.00;1.00;;;;;9.44;58.13;100055.50;5012403;28;45510;-83
2021/12/04 17:23:31;;;;;;;;;2.00;2.00;;;;;9.60;58.32;100093.69;5015635;28;45835;-83
2021/12/04 17:25:58;;;;;;;;;1.00;1.00;;;;;9.43;57.88;100053.75;5017003;28;45572;-83
2021/12/04 17:28:25;;;;;;;;;2.33;1.33;;;;;9.34;57.30;100041.81;5017988;28;45467;-83
2021/12/04 17:30:51;;;;;;;;;1.00;1.00;;;;;9.77;57.88;100130.09;5017075;28;45532;-83
2021/12/04 17:33:16;;;;;;;;;3.67;3.67;;;;;9.52;58.78;100102.03;5017397;28;45354;-84
2021/12/04 17:35:42;;;;;;;;;2.00;2.00;;;;;9.79;57.80;100161.97;5016952;28;45763;-83
2021/12/04 17:38:08;;;;;;;;;2.00;2.00;;;;;9.18;58.13;100078.91;5017711;28;45476;-83
2021/12/04 17:40:35;;;;;;;;;3.00;3.00;;;;;9.39;58.78;100116.00;5016582;28;45680;-83
2021/12/04 17:43:03;;;;;;;;;5.00;3.67;;;;;9.68;58.92;100167.81;5017487;28;46115;-83
2021/12/04 17:45:29;;;;;;;;;3.00;3.00;;;;;9.50;59.88;100140.28;5005359;28;45419;-85
2021/12/04 17:47:55;;;;;;;;;6.67;4.00;;;;;9.15;59.73;100070.22;5001572;28;45321;-84
2021/12/04 17:50:27;;;;;;;;;5.00;3.67;;;;;9.80;59.54;100179.63;5018107;28;45562;-83
2021/12/04 17:52:59;;;;;;;;;6.67;5.67;;;;;9.78;60.19;100166.41;5015579;28;48149;-84
2021/12/04 17:55:27;;;;;;;;;1.67;1.67;;;;;9.30;59.75;100090.75;5017584;28;45634;-84
2021/12/04 17:57:53;;;;;;;;;9.00;8.33;;;;;9.52;60.56;100117.13;5016479;28;45432;-84
2021/12/04 18:00:24;;;;;;;;;6.67;5.33;;;;;9.50;59.92;100111.03;5017331;28;45401;-84
2021/12/04 18:02:50;;;;;;;;;8.67;7.00;;;;;9.85;60.87;100166.94;5015127;28;47227;-82
2021/12/04 18:05:21;;;;;;;;;5.00;4.33;;;;;9.56;60.34;100133.81;5016877;28;45523;-84
2021/12/04 18:07:47;;;;;;;;;4.67;3.67;;;;;9.28;60.36;100098.78;5014889;28;45303;-84
2021/12/04 18:10:15;;;;;;;;;7.00;7.00;;;;;9.65;60.25;100176.81;5016407;28;45586;-82
2021/12/04 18:12:54;;;;;;;;;9.00;6.33;;;;;9.73;60.73;100190.56;5016802;28;45470;-82
2021/12/04 18:15:26;;;;;;;;;2.00;2.00;;;;;9.50;60.80;100146.50;5016806;28;45550;-82
2021/12/04 18:17:51;;;;;;;;;6.00;3.00;;;;;9.50;60.69;100148.28;5016366;28;45396;-82
2021/12/04 18:20:20;;;;;;;;;4.67;4.67;;;;;9.57;60.76;100162.13;5016505;28;45496;-82
2021/12/04 18:22:46;;;;;;;;;5.33;4.67;;;;;9.42;60.37;100132.69;5016635;28;45937;-83
2021/12/04 18:25:11;;;;;;;;;5.00;5.00;;;;;9.41;59.84;100130.97;5016969;28;45456;-82
2021/12/04 18:27:36;;;;;;;;;5.00;4.00;;;;;9.79;60.86;100199.22;5016602;28;45880;-83
2021/12/04 18:30:12;;;;;;;;;6.67;6.33;;;;;9.81;60.18;100207.97;5015507;28;45315;-83
2021/12/04 18:32:38;;;;;;;;;9.00;9.00;;;;;9.43;60.80;100142.38;5016373;28;45556;-82
2021/12/04 18:35:05;;;;;;;;;7.33;4.67;;;;;9.18;61.46;100092.22;5016351;28;45361;-82
2021/12/04 18:37:31;;;;;;;;;9.00;9.00;;;;;9.79;61.59;100184.09;5016838;28;45472;-82
2021/12/04 18:39:57;;;;;;;;;14.67;12.67;;;;;9.81;61.79;100198.19;5015790;28;45656;-82
2021/12/04 18:42:22;;;;;;;;;12.00;10.00;;;;;9.58;61.57;100164.72;5016864;28;46147;-82
2021/12/04 18:44:48;;;;;;;;;9.00;6.00;;;;;9.66;61.84;100185.63;5006952;28;45506;-82
2021/12/04 18:47:14;;;;;;;;;9.00;8.00;;;;;9.19;62.09;100101.91;5010327;28;45540;-82
2021/12/04 18:49:39;;;;;;;;;5.33;5.33;;;;;9.79;62.21;100208.06;4996774;28;45563;-81
2021/12/04 18:52:05;;;;;;;;;9.67;9.67;;;;;9.63;62.33;100185.78;5016210;28;46181;-81
2021/12/04 18:54:30;;;;;;;;;15.00;13.33;;;;;9.84;63.05;100210.50;5016068;28;45502;-80
2021/12/04 18:56:59;;;;;;;;;12.67;12.67;;;;;9.81;63.83;100192.00;5016125;28;45555;-80
2021/12/04 18:59:25;;;;;;;;;20.33;12.00;;;;;9.46;63.66;100128.09;5016398;28;45632;-80
2021/12/04 19:01:51;;;;;;;;;10.33;10.00;;;;;9.83;64.26;100195.44;5015306;28;46009;-80
2021/12/04 19:04:17;;;;;;;;;7.33;7.33;;;;;9.80;64.67;100192.94;5016603;28;45474;-80
2021/12/04 19:06:43;;;;;;;;;11.00;10.00;;;;;9.60;63.94;100156.66;5015802;28;45469;-80
2021/12/04 19:09:11;;;;;;;;;14.33;13.33;;;;;9.47;63.91;100121.81;5015992;28;45487;-80
2021/12/04 19:11:36;;;;;;;;;14.33;14.33;;;;;9.89;63.29;100192.50;5015796;28;46506;-80
2021/12/04 19:14:02;;;;;;;;;13.00;13.00;;;;;9.88;63.58;100185.41;5015249;28;45382;-80
2021/12/04 19:16:28;;;;;;;;;11.67;10.67;;;;;9.90;63.51;100184.44;5015713;28;45338;-80
2021/12/04 19:18:54;;;;;;;;;11.00;9.33;;;;;9.56;62.61;100137.34;5015120;28;45393;-80
2021/12/04 19:21:20;;;;;;;;;8.67;8.67;;;;;9.70;62.89;100153.47;5015158;28;46224;-80
2021/12/04 19:23:50;;;;;;;;;13.67;11.67;;;;;9.77;62.76;100169.16;5015368;28;45742;-80
2021/12/04 19:26:16;;;;;;;;;11.00;8.33;;;;;9.35;62.94;100101.16;5015732;28;45424;-81
2021/12/04 19:28:42;;;;;;;;;9.00;9.00;;;;;9.27;63.28;100086.44;5016214;28;45639;-81
2021/12/04 19:31:16;;;;;;;;;11.67;8.67;;;;;9.76;63.02;100172.72;5015464;28;45781;-81